createdAt,value
2023-02-15T00:00:16.013Z,30.85
2023-02-15T00:01:18.478Z,30.52
2023-02-15T00:02:21.177Z,29.02
2023-02-15T00:03:23.895Z,32.53
2023-02-15T00:04:46.929Z,28.67
2023-02-15T00:05:49.997Z,28.20
2023-02-15T00:06:52.450Z,31.98
2023-02-15T00:07:54.953Z,31.42
2023-02-15T00:08:57.515Z,30.58
2023-02-15T00:09:59.986Z,31.60
2023-02-15T00:11:09.225Z,30.58
2023-02-15T00:12:11.814Z,31.20
2023-02-15T00:13:14.253Z,29.55
2023-02-15T00:14:24.637Z,29.27
2023-02-15T00:15:27.186Z,27.70
2023-02-15T00:16:29.805Z,30.40
2023-02-15T00:17:32.334Z,29.77
2023-02-15T00:18:35.069Z,29.70
2023-02-15T00:19:37.723Z,28.98
2023-02-15T00:20:40.196Z,30.25
2023-02-15T00:21:43.321Z,31.88
2023-02-15T00:22:46.030Z,31.38
2023-02-15T00:23:48.487Z,29.85
2023-02-15T00:24:51.218Z,32.25
2023-02-15T00:25:53.744Z,28.50
2023-02-15T00:26:56.197Z,30.42
2023-02-15T00:27:58.756Z,30.25
2023-02-15T00:29:02.488Z,30.55
2023-02-15T00:30:05.581Z,30.88
2023-02-15T00:31:12.442Z,28.98
2023-02-15T00:32:14.960Z,29.88
2023-02-15T00:33:17.381Z,27.65
2023-02-15T00:34:26.499Z,28.52
2023-02-15T00:35:28.919Z,28.38
2023-02-15T00:36:31.457Z,27.77
2023-02-15T00:38:30.203Z,27.30
2023-02-15T00:39:38.449Z,27.38
2023-02-15T00:40:42.084Z,26.80
2023-02-15T00:41:45.156Z,27.27
2023-02-15T00:42:47.643Z,26.00
2023-02-15T00:43:51.120Z,25.90
2023-02-15T00:44:53.661Z,27.08
2023-02-15T00:45:57.021Z,25.67
2023-02-15T00:46:59.448Z,25.27
2023-02-15T00:48:02.018Z,27.95
2023-02-15T00:49:04.718Z,29.40
2023-02-15T00:50:07.710Z,29.02
2023-02-15T00:51:10.171Z,27.80
2023-02-15T00:52:14.934Z,25.13
2023-02-15T00:53:17.750Z,26.50
2023-02-15T00:54:20.355Z,26.73
2023-02-15T00:55:22.934Z,27.35
2023-02-15T00:56:25.599Z,27.30
2023-02-15T00:57:28.110Z,28.52
2023-02-15T00:58:30.534Z,28.92
2023-02-15T00:59:32.985Z,27.73
2023-02-15T01:00:36.181Z,26.40
2023-02-15T01:01:38.934Z,27.35
2023-02-15T01:02:41.408Z,28.60
2023-02-15T01:03:44.107Z,26.40
2023-02-15T01:04:46.598Z,27.40
2023-02-15T01:05:50.283Z,28.08
2023-02-15T01:06:52.708Z,26.95
2023-02-15T01:07:55.298Z,25.63
2023-02-15T01:08:57.867Z,29.02
2023-02-15T01:10:00.294Z,26.33
2023-02-15T01:11:12.391Z,26.60
2023-02-15T01:12:14.981Z,26.65
2023-02-15T01:13:18.248Z,27.60
2023-02-15T01:14:20.808Z,26.10
2023-02-15T01:15:24.088Z,26.00
2023-02-15T01:16:28.939Z,27.48
2023-02-15T01:17:33.034Z,27.95
2023-02-15T01:18:36.724Z,24.27
2023-02-15T01:19:39.239Z,25.25
2023-02-15T01:20:42.744Z,25.63
2023-02-15T01:21:45.153Z,26.50
2023-02-15T01:22:47.797Z,24.65
2023-02-15T01:23:50.571Z,25.35
2023-02-15T01:24:53.364Z,26.42
2023-02-15T01:25:55.937Z,25.60
2023-02-15T01:26:58.385Z,24.83
2023-02-15T01:28:03.897Z,23.63
2023-02-15T01:29:06.495Z,26.58
2023-02-15T01:30:10.004Z,25.35
2023-02-15T01:31:15.065Z,24.80
2023-02-15T01:32:17.668Z,24.65
2023-02-15T01:33:20.191Z,25.80
2023-02-15T01:34:22.678Z,25.98
2023-02-15T01:35:25.579Z,24.33
2023-02-15T01:36:31.552Z,24.35
2023-02-15T01:37:35.090Z,24.10
2023-02-15T01:39:33.520Z,24.92
2023-02-15T01:41:15.120Z,23.48
2023-02-15T01:42:25.373Z,24.90
2023-02-15T01:43:42.303Z,24.65
2023-02-15T01:44:54.606Z,26.52
2023-02-15T01:45:57.228Z,24.20
2023-02-15T01:46:59.679Z,25.48
2023-02-15T01:48:07.703Z,27.45
2023-02-15T01:49:14.633Z,26.05
2023-02-15T01:50:22.221Z,24.55
2023-02-15T01:51:26.577Z,25.20
2023-02-15T01:52:29.808Z,28.08
2023-02-15T01:53:42.935Z,25.30
2023-02-15T01:54:46.498Z,25.95
2023-02-15T01:55:51.246Z,24.55
2023-02-15T01:56:55.406Z,26.80
2023-02-15T01:57:58.023Z,24.73
2023-02-15T01:59:03.718Z,24.33
2023-02-15T02:00:08.623Z,24.92
2023-02-15T02:01:17.526Z,24.70
2023-02-15T02:02:25.362Z,25.00
2023-02-15T02:03:37.911Z,23.67
2023-02-15T02:04:46.298Z,23.85
2023-02-15T02:05:48.726Z,25.45
2023-02-15T02:06:52.104Z,24.33
2023-02-15T02:07:57.518Z,24.50
2023-02-15T02:09:00.387Z,23.45
2023-02-15T02:10:05.082Z,23.10
2023-02-15T02:11:15.911Z,24.60
2023-02-15T02:12:22.931Z,23.15
2023-02-15T02:13:25.892Z,23.73
2023-02-15T02:14:28.434Z,22.60
2023-02-15T02:15:50.920Z,25.13
2023-02-15T02:16:53.746Z,23.65
2023-02-15T02:18:09.508Z,22.83
2023-02-15T02:19:28.592Z,23.98
2023-02-15T02:21:10.693Z,23.00
2023-02-15T02:22:27.805Z,22.95
2023-02-15T02:23:39.310Z,23.38
2023-02-15T02:24:47.543Z,23.60
2023-02-15T02:26:09.809Z,24.38
2023-02-15T02:29:10.221Z,21.88
2023-02-15T02:30:34.108Z,21.65
2023-02-15T02:31:45.450Z,21.48
2023-02-15T02:33:19.292Z,22.55
2023-02-15T02:34:31.567Z,21.30
2023-02-15T02:35:47.885Z,23.08
2023-02-15T02:37:21.944Z,22.33
2023-02-15T02:38:55.940Z,23.02
2023-02-15T02:40:00.997Z,24.10
2023-02-15T02:41:18.836Z,25.95
2023-02-15T02:42:41.979Z,26.65
2023-02-15T02:43:44.394Z,25.55
2023-02-15T02:45:06.854Z,25.30
2023-02-15T02:46:31.829Z,24.50
2023-02-15T02:47:42.822Z,24.77
2023-02-15T02:48:45.502Z,24.92
2023-02-15T02:49:48.738Z,26.00
2023-02-15T02:50:51.259Z,26.13
2023-02-15T02:52:00.210Z,26.15
2023-02-15T02:53:02.692Z,26.17
2023-02-15T02:54:07.074Z,24.95
2023-02-15T02:55:18.153Z,27.58
2023-02-15T02:56:23.561Z,27.17
2023-02-15T02:57:28.344Z,25.25
2023-02-15T02:58:33.036Z,24.58
2023-02-15T02:59:39.771Z,24.67
2023-02-15T03:00:49.901Z,23.27
2023-02-15T03:02:08.971Z,26.60
2023-02-15T03:03:16.171Z,24.02
2023-02-15T03:04:31.678Z,23.30
2023-02-15T03:05:36.442Z,25.45
2023-02-15T03:06:51.777Z,24.95
2023-02-15T03:07:55.490Z,25.27
2023-02-15T03:09:15.481Z,25.08
2023-02-15T03:10:19.633Z,25.85
2023-02-15T03:11:22.137Z,26.75
2023-02-15T03:12:32.457Z,25.10
2023-02-15T03:13:35.780Z,26.00
2023-02-15T03:14:39.441Z,26.13
2023-02-15T03:16:02.492Z,25.75
2023-02-15T03:17:07.331Z,23.33
2023-02-15T03:18:10.272Z,27.05
2023-02-15T03:19:32.652Z,25.60
2023-02-15T03:20:38.105Z,23.77
2023-02-15T03:21:58.663Z,24.55
2023-02-15T03:23:04.537Z,24.85
2023-02-15T03:24:16.315Z,24.92
2023-02-15T03:25:43.180Z,23.98
2023-02-15T03:26:48.888Z,24.05
2023-02-15T03:28:00.726Z,25.70
2023-02-15T03:29:05.142Z,23.92
2023-02-15T03:30:08.851Z,23.13
2023-02-15T03:31:13.581Z,22.58
2023-02-15T03:32:17.082Z,24.27
2023-02-15T03:33:20.690Z,23.15
2023-02-15T03:34:23.296Z,25.50
2023-02-15T03:35:27.890Z,25.35
2023-02-15T03:36:33.585Z,24.42
2023-02-15T03:37:43.234Z,23.17
2023-02-15T03:39:03.809Z,24.08
2023-02-15T03:40:24.902Z,23.73
2023-02-15T03:41:31.788Z,22.23
2023-02-15T03:42:36.927Z,24.08
2023-02-15T03:43:46.434Z,22.77
2023-02-15T03:44:55.658Z,25.23
2023-02-15T03:46:07.797Z,24.20
2023-02-15T03:47:15.345Z,23.17
2023-02-15T03:48:18.615Z,23.75
2023-02-15T03:49:38.661Z,24.00
2023-02-15T03:50:59.834Z,24.77
2023-02-15T03:52:03.723Z,24.10
2023-02-15T03:53:09.057Z,25.98
2023-02-15T03:54:40.203Z,24.65
2023-02-15T03:55:42.828Z,23.98
2023-02-15T03:57:05.235Z,21.95
2023-02-15T03:58:26.880Z,22.90
2023-02-15T03:59:48.064Z,22.60
2023-02-15T04:01:23.349Z,23.05
2023-02-15T04:02:29.240Z,22.88
2023-02-15T04:04:06.661Z,22.38
2023-02-15T04:05:09.168Z,23.58
2023-02-15T04:06:11.615Z,24.58
2023-02-15T04:07:14.358Z,23.52
2023-02-15T04:08:19.790Z,23.73
2023-02-15T04:09:41.273Z,25.48
2023-02-15T04:10:58.986Z,26.73
2023-02-15T04:12:02.908Z,26.08
2023-02-15T04:13:05.425Z,26.88
2023-02-15T04:14:26.764Z,27.67
2023-02-15T04:15:47.839Z,25.20
2023-02-15T04:16:50.981Z,24.83
2023-02-15T04:17:53.851Z,25.10
2023-02-15T04:19:14.536Z,26.45
2023-02-15T04:20:35.478Z,24.67
2023-02-15T04:21:56.476Z,24.35
2023-02-15T04:24:38.608Z,23.85
2023-02-15T04:25:41.104Z,24.00
2023-02-15T04:26:43.939Z,23.85
2023-02-15T04:27:49.125Z,24.75
2023-02-15T04:28:51.882Z,25.25
2023-02-15T04:29:54.495Z,26.40
2023-02-15T04:30:57.144Z,24.42
2023-02-15T04:32:02.247Z,25.55
2023-02-15T04:33:04.796Z,24.38
2023-02-15T04:34:07.455Z,23.98
2023-02-15T04:35:10.541Z,24.05
2023-02-15T04:36:12.946Z,24.45
2023-02-15T04:37:15.351Z,22.52
2023-02-15T04:38:18.245Z,24.55
2023-02-15T04:39:20.844Z,23.40
2023-02-15T04:40:23.317Z,24.00
2023-02-15T04:41:25.806Z,22.80
2023-02-15T04:42:28.334Z,21.13
2023-02-15T04:43:30.819Z,21.75
2023-02-15T04:44:33.333Z,22.77
2023-02-15T04:45:35.742Z,22.80
2023-02-15T04:46:38.601Z,22.52
2023-02-15T04:47:41.073Z,21.45
2023-02-15T04:48:44.669Z,22.17
2023-02-15T04:49:47.194Z,22.45
2023-02-15T04:50:49.640Z,22.98
2023-02-15T04:51:52.070Z,22.48
2023-02-15T04:52:54.571Z,21.52
2023-02-15T04:53:57.782Z,21.60
2023-02-15T04:55:00.363Z,21.95
2023-02-15T04:56:03.679Z,22.45
2023-02-15T04:57:07.245Z,21.80
2023-02-15T04:58:09.875Z,22.52
2023-02-15T04:59:12.867Z,20.42
2023-02-15T05:00:15.669Z,24.23
2023-02-15T05:01:18.390Z,22.67
2023-02-15T05:02:21.468Z,22.27
2023-02-15T05:03:24.132Z,24.50
2023-02-15T05:04:29.180Z,23.27
2023-02-15T05:05:31.964Z,22.38
2023-02-15T05:06:34.417Z,23.67
2023-02-15T05:07:36.897Z,23.10
2023-02-15T05:08:39.393Z,23.60
2023-02-15T05:09:41.858Z,23.27
2023-02-15T05:10:44.332Z,24.23
2023-02-15T05:11:47.170Z,22.77
2023-02-15T05:12:49.770Z,20.65
2023-02-15T05:13:52.410Z,20.98
2023-02-15T05:14:54.827Z,22.02
2023-02-15T05:15:57.285Z,20.88
2023-02-15T05:17:02.563Z,21.73
2023-02-15T05:18:06.848Z,20.85
2023-02-15T05:19:09.464Z,20.63
2023-02-15T05:20:12.138Z,20.55
2023-02-15T05:21:14.908Z,23.17
2023-02-15T05:22:17.282Z,21.48
2023-02-15T05:23:19.735Z,24.98
2023-02-15T05:24:40.712Z,21.33
2023-02-15T05:27:27.312Z,22.00
2023-02-15T05:28:30.021Z,20.70
2023-02-15T05:29:32.466Z,22.05
2023-02-15T05:30:35.105Z,21.88
2023-02-15T05:31:38.007Z,20.52
2023-02-15T05:32:40.799Z,21.40
2023-02-15T05:33:43.808Z,21.58
2023-02-15T05:34:46.242Z,22.23
2023-02-15T05:35:48.808Z,22.63
2023-02-15T05:36:51.283Z,21.77
2023-02-15T05:37:54.182Z,20.73
2023-02-15T05:38:57.027Z,21.27
2023-02-15T05:39:59.437Z,21.58
2023-02-15T05:41:02.062Z,22.13
2023-02-15T05:42:04.752Z,22.08
2023-02-15T05:43:07.197Z,20.17
2023-02-15T05:44:09.727Z,20.23
2023-02-15T05:45:12.209Z,20.77
2023-02-15T05:46:14.756Z,20.27
2023-02-15T05:47:17.311Z,20.45
2023-02-15T05:48:21.632Z,20.20
2023-02-15T05:49:24.100Z,21.98
2023-02-15T05:50:27.229Z,20.60
2023-02-15T05:51:29.805Z,20.60
2023-02-15T05:52:32.229Z,22.42
2023-02-15T05:53:38.288Z,20.65
2023-02-15T05:54:40.711Z,20.77
2023-02-15T05:55:43.246Z,20.63
2023-02-15T05:56:45.751Z,19.40
2023-02-15T05:57:48.199Z,19.67
2023-02-15T05:58:50.820Z,21.35
2023-02-15T05:59:53.265Z,21.25
2023-02-15T06:00:56.061Z,20.52
2023-02-15T06:01:58.513Z,22.38
2023-02-15T06:03:01.113Z,21.92
2023-02-15T06:04:03.607Z,20.15
2023-02-15T06:05:07.204Z,20.70
2023-02-15T06:06:10.032Z,20.25
2023-02-15T06:07:13.322Z,19.73
2023-02-15T06:08:16.509Z,21.23
2023-02-15T06:09:19.368Z,19.48
2023-02-15T06:10:22.001Z,20.55
2023-02-15T06:11:24.586Z,20.77
2023-02-15T06:12:27.055Z,19.27
2023-02-15T06:13:29.807Z,20.23
2023-02-15T06:14:32.307Z,18.23
2023-02-15T06:15:34.967Z,19.48
2023-02-15T06:16:37.505Z,19.67
2023-02-15T06:17:43.343Z,19.25
2023-02-15T06:18:45.914Z,18.75
2023-02-15T06:19:48.604Z,17.85
2023-02-15T06:20:51.346Z,19.30
2023-02-15T06:21:53.942Z,19.10
2023-02-15T06:22:56.406Z,17.05
2023-02-15T06:23:58.949Z,17.30
2023-02-15T06:25:02.351Z,17.13
2023-02-15T06:26:05.025Z,17.38
2023-02-15T06:27:07.737Z,18.23
2023-02-15T06:28:10.194Z,18.27
2023-02-15T06:29:12.661Z,17.85
2023-02-15T06:30:15.565Z,17.30
2023-02-15T06:31:18.150Z,17.10
2023-02-15T06:32:20.745Z,18.40
2023-02-15T06:33:24.250Z,17.00
2023-02-15T06:34:26.722Z,18.15
2023-02-15T06:35:29.474Z,17.85
2023-02-15T06:36:32.644Z,17.40
2023-02-15T06:37:35.198Z,16.80
2023-02-15T06:38:37.678Z,18.20
2023-02-15T06:39:40.357Z,15.60
2023-02-15T06:40:42.983Z,16.17
2023-02-15T06:41:45.430Z,17.58
2023-02-15T06:42:48.066Z,17.00
2023-02-15T06:43:50.930Z,16.90
2023-02-15T06:44:53.821Z,17.83
2023-02-15T06:45:56.228Z,18.00
2023-02-15T06:46:58.919Z,17.98
2023-02-15T06:48:01.401Z,17.75
2023-02-15T06:49:03.974Z,18.13
2023-02-15T06:50:07.527Z,19.45
2023-02-15T06:51:10.152Z,17.92
2023-02-15T06:52:14.245Z,18.10
2023-02-15T06:53:16.836Z,17.45
2023-02-15T06:54:19.616Z,18.52
2023-02-15T06:55:22.052Z,18.10
2023-02-15T06:56:24.474Z,19.40
2023-02-15T06:57:27.277Z,18.67
2023-02-15T06:58:30.124Z,17.63
2023-02-15T06:59:32.627Z,18.13
2023-02-15T07:00:35.164Z,18.75
2023-02-15T07:01:38.079Z,18.98
2023-02-15T07:02:40.811Z,19.17
2023-02-15T07:03:43.412Z,18.58
2023-02-15T07:04:46.028Z,17.70
2023-02-15T07:05:49.827Z,17.75
2023-02-15T07:06:54.028Z,17.10
2023-02-15T07:07:56.723Z,17.48
2023-02-15T07:08:59.295Z,17.25
2023-02-15T07:10:01.880Z,17.05
2023-02-15T07:11:23.689Z,17.88
2023-02-15T07:12:45.266Z,18.45
2023-02-15T07:13:48.384Z,18.00
2023-02-15T07:14:50.810Z,17.80
2023-02-15T07:15:53.276Z,17.98
2023-02-15T07:16:55.771Z,18.75
2023-02-15T07:18:00.209Z,17.42
2023-02-15T07:19:02.882Z,18.08
2023-02-15T07:20:08.935Z,16.35
2023-02-15T07:21:11.484Z,16.48
2023-02-15T07:22:14.014Z,15.77
2023-02-15T07:23:16.445Z,15.70
2023-02-15T07:24:18.838Z,16.52
2023-02-15T07:25:21.340Z,15.93
2023-02-15T07:26:23.820Z,14.15
2023-02-15T07:27:26.282Z,13.20
2023-02-15T07:28:29.297Z,14.02
2023-02-15T07:29:31.848Z,13.73
2023-02-15T07:30:34.506Z,12.85
2023-02-15T07:31:37.206Z,12.55
2023-02-15T07:32:59.706Z,13.52
2023-02-15T07:34:02.265Z,12.30
2023-02-15T07:35:04.897Z,13.07
2023-02-15T07:36:08.301Z,12.90
2023-02-15T07:37:10.823Z,12.73
2023-02-15T07:38:13.312Z,12.20
2023-02-15T07:39:15.706Z,13.73
2023-02-15T07:40:18.608Z,11.57
2023-02-15T07:41:20.996Z,13.25
2023-02-15T07:42:23.642Z,13.20
2023-02-15T07:43:27.824Z,13.88
2023-02-15T07:44:30.377Z,12.02
2023-02-15T07:45:32.812Z,13.18
2023-02-15T07:46:35.392Z,12.88
2023-02-15T07:47:37.881Z,13.43
2023-02-15T07:48:41.449Z,12.93
2023-02-15T07:49:43.988Z,11.63
2023-02-15T07:50:46.470Z,12.35
2023-02-15T07:51:49.027Z,12.68
2023-02-15T07:52:51.531Z,13.80
2023-02-15T07:53:54.062Z,13.40
2023-02-15T07:54:56.509Z,13.45
2023-02-15T07:56:08.462Z,13.32
2023-02-15T07:57:10.968Z,14.65
2023-02-15T07:58:13.333Z,14.77
2023-02-15T07:59:15.911Z,12.15
2023-02-15T08:00:22.497Z,12.50
2023-02-15T08:01:29.069Z,12.57
2023-02-15T08:02:31.604Z,12.02
2023-02-15T08:03:34.106Z,12.05
2023-02-15T08:04:36.577Z,12.82
2023-02-15T08:05:42.942Z,11.88
2023-02-15T08:06:45.485Z,12.90
2023-02-15T08:07:48.143Z,13.77
2023-02-15T08:08:50.750Z,13.32
2023-02-15T08:09:54.422Z,14.65
2023-02-15T08:11:19.367Z,12.52
2023-02-15T08:12:21.875Z,13.00
2023-02-15T08:13:24.516Z,14.13
2023-02-15T08:14:28.769Z,12.60
2023-02-15T08:15:31.228Z,11.70
2023-02-15T08:16:35.507Z,12.00
2023-02-15T08:17:38.340Z,16.60
2023-02-15T08:18:40.778Z,16.80
2023-02-15T08:19:43.177Z,16.30
2023-02-15T08:20:50.935Z,14.60
2023-02-15T08:21:58.509Z,15.05
2023-02-15T08:23:01.162Z,13.68
2023-02-15T08:24:04.605Z,15.30
2023-02-15T08:25:07.273Z,13.90
2023-02-15T08:26:09.799Z,14.65
2023-02-15T08:27:12.809Z,12.73
2023-02-15T08:28:15.333Z,12.63
2023-02-15T08:29:23.049Z,11.80
2023-02-15T08:30:25.574Z,12.75
2023-02-15T08:31:28.889Z,11.77
2023-02-15T08:32:31.533Z,11.25
2023-02-15T08:33:34.450Z,11.52
2023-02-15T08:34:41.920Z,12.70
2023-02-15T08:35:44.445Z,11.85
2023-02-15T08:36:47.276Z,12.68
2023-02-15T08:37:49.959Z,12.63
2023-02-15T08:38:52.587Z,13.15
2023-02-15T08:39:55.462Z,12.68
2023-02-15T08:40:58.018Z,14.00
2023-02-15T08:42:00.495Z,12.82
2023-02-15T08:43:02.978Z,12.32
2023-02-15T08:44:07.773Z,12.55
2023-02-15T08:45:10.527Z,12.05
2023-02-15T08:46:13.787Z,12.60
2023-02-15T08:47:16.252Z,13.40
2023-02-15T08:48:19.221Z,14.43
2023-02-15T08:49:22.998Z,12.52
2023-02-15T08:50:25.559Z,13.07
2023-02-15T08:51:31.166Z,13.07
2023-02-15T08:52:33.778Z,12.45
2023-02-15T08:53:36.335Z,11.38
2023-02-15T08:54:38.827Z,11.98
2023-02-15T08:55:41.362Z,12.18
2023-02-15T08:56:45.209Z,12.15
2023-02-15T08:57:49.094Z,12.55
2023-02-15T08:58:51.609Z,13.00
2023-02-15T08:59:56.091Z,12.18
2023-02-15T09:00:59.350Z,13.32
2023-02-15T09:02:02.444Z,12.85
2023-02-15T09:03:04.956Z,13.55
2023-02-15T09:04:09.828Z,13.10
2023-02-15T09:05:12.332Z,13.98
2023-02-15T09:06:15.546Z,14.55
2023-02-15T09:07:19.845Z,13.32
2023-02-15T09:08:22.288Z,13.43
2023-02-15T09:09:24.773Z,14.50
2023-02-15T09:10:27.282Z,13.98
2023-02-15T09:11:32.330Z,13.88
2023-02-15T09:12:34.720Z,12.68
2023-02-15T09:13:38.002Z,12.98
2023-02-15T09:14:40.792Z,13.27
2023-02-15T09:15:43.290Z,13.23
2023-02-15T09:16:49.581Z,12.82
2023-02-15T09:17:52.311Z,11.50
2023-02-15T09:18:55.308Z,11.13
2023-02-15T09:19:58.396Z,12.02
2023-02-15T09:21:17.717Z,14.43
2023-02-15T09:22:20.356Z,13.32
2023-02-15T09:23:27.186Z,12.07
2023-02-15T09:24:33.371Z,12.35
2023-02-15T09:25:35.895Z,11.75
2023-02-15T09:26:45.278Z,11.82
2023-02-15T09:27:47.759Z,11.30
2023-02-15T09:28:54.147Z,12.05
2023-02-15T09:29:56.756Z,12.00
2023-02-15T09:31:09.192Z,11.80
2023-02-15T09:32:15.443Z,10.20
2023-02-15T09:33:18.119Z,10.57
2023-02-15T09:34:22.649Z,10.38
2023-02-15T09:35:25.223Z,12.10
2023-02-15T09:36:39.307Z,12.25
2023-02-15T09:37:41.879Z,11.52
2023-02-15T09:38:47.771Z,12.48
2023-02-15T09:39:50.383Z,12.07
2023-02-15T09:41:17.329Z,12.85
2023-02-15T09:42:42.805Z,11.73
2023-02-15T09:44:14.556Z,11.88
2023-02-15T09:45:42.827Z,10.52
2023-02-15T09:47:23.340Z,9.68
2023-02-15T09:48:41.393Z,10.05
2023-02-15T09:50:12.006Z,11.95
2023-02-15T09:51:51.990Z,10.40
2023-02-15T09:53:31.763Z,9.30
2023-02-15T09:54:37.461Z,12.00
2023-02-15T09:55:43.006Z,13.55
2023-02-15T09:57:31.000Z,11.57
2023-02-15T09:58:51.813Z,12.70
2023-02-15T10:00:12.889Z,11.55
2023-02-15T10:01:31.686Z,12.98
2023-02-15T10:02:37.518Z,11.98
2023-02-15T10:03:48.186Z,12.98
2023-02-15T10:05:08.634Z,12.02
2023-02-15T10:06:28.963Z,12.40
2023-02-15T10:07:46.441Z,12.77
2023-02-15T10:08:59.206Z,14.88
2023-02-15T10:10:31.099Z,13.20
2023-02-15T10:11:59.629Z,13.00
2023-02-15T10:13:05.001Z,12.52
2023-02-15T10:15:01.491Z,12.90
2023-02-15T10:16:32.102Z,13.25
2023-02-15T10:17:53.000Z,12.23
2023-02-15T10:19:04.619Z,13.00
2023-02-15T10:20:41.748Z,13.10
2023-02-15T10:21:49.812Z,13.07
2023-02-15T10:23:04.439Z,14.00
2023-02-15T10:24:30.584Z,13.45
2023-02-15T10:26:12.457Z,13.75
2023-02-15T10:27:22.454Z,13.48
2023-02-15T10:28:29.104Z,13.20
2023-02-15T10:29:39.427Z,13.35
2023-02-15T10:30:48.520Z,13.43
2023-02-15T10:32:15.469Z,13.23
2023-02-15T10:33:26.953Z,13.80
2023-02-15T10:34:45.260Z,14.07
2023-02-15T10:36:24.818Z,12.77
2023-02-15T10:38:00.770Z,12.50
2023-02-15T10:39:30.740Z,13.13
2023-02-15T10:40:52.457Z,12.50
2023-02-15T10:42:00.969Z,13.18
2023-02-15T10:43:05.418Z,13.98
2023-02-15T10:44:40.572Z,14.40
2023-02-15T10:46:09.695Z,14.10
2023-02-15T10:47:50.677Z,13.82
2023-02-15T10:49:37.598Z,14.13
2023-02-15T10:51:09.637Z,13.02
2023-02-15T10:52:36.216Z,14.50
2023-02-15T10:54:02.346Z,11.65
2023-02-15T10:55:42.362Z,13.55
2023-02-15T10:56:44.860Z,12.13
2023-02-15T10:58:08.603Z,13.05
2023-02-15T10:59:13.834Z,13.52
2023-02-15T11:00:32.266Z,13.95
2023-02-15T11:01:40.682Z,13.35
2023-02-15T11:02:53.964Z,12.82
2023-02-15T11:04:17.404Z,13.23
2023-02-15T11:05:55.871Z,13.25
2023-02-15T11:07:15.444Z,13.40
2023-02-15T11:08:18.100Z,12.73
2023-02-15T11:09:23.643Z,12.80
2023-02-15T11:10:35.569Z,13.93
2023-02-15T11:11:41.508Z,14.30
2023-02-15T11:12:44.882Z,13.05
2023-02-15T11:13:51.525Z,13.52
2023-02-15T11:15:05.749Z,14.68
2023-02-15T11:16:18.554Z,12.63
2023-02-15T11:17:29.365Z,13.63
2023-02-15T11:18:33.720Z,13.35
2023-02-15T11:19:41.181Z,13.93
2023-02-15T11:21:05.922Z,13.48
2023-02-15T11:22:11.245Z,13.55
2023-02-15T11:23:19.541Z,14.02
2023-02-15T11:24:22.279Z,14.45
2023-02-15T11:25:29.581Z,14.07
2023-02-15T11:26:39.279Z,13.57
2023-02-15T11:27:42.000Z,14.68
2023-02-15T11:28:50.229Z,13.90
2023-02-15T11:30:10.457Z,13.55
2023-02-15T11:31:22.158Z,14.98
2023-02-15T11:32:32.475Z,14.00
2023-02-15T11:33:42.565Z,14.35
2023-02-15T11:35:12.678Z,14.27
2023-02-15T11:36:25.108Z,12.93
2023-02-15T11:37:47.196Z,11.18
2023-02-15T11:38:53.951Z,13.65
2023-02-15T11:39:57.744Z,12.68
2023-02-15T11:41:15.504Z,13.77
2023-02-15T11:42:21.703Z,12.35
2023-02-15T11:43:39.122Z,12.75
2023-02-15T11:45:08.391Z,12.07
2023-02-15T11:46:13.510Z,10.80
2023-02-15T11:47:16.325Z,12.30
2023-02-15T11:48:19.088Z,12.70
2023-02-15T11:49:26.048Z,12.82
2023-02-15T11:50:30.827Z,12.07
2023-02-15T11:51:33.602Z,12.95
2023-02-15T11:52:36.902Z,13.10
2023-02-15T11:53:40.161Z,12.38
2023-02-15T11:54:44.954Z,12.95
2023-02-15T11:55:49.369Z,11.65
2023-02-15T11:56:51.863Z,14.35
2023-02-15T11:58:02.475Z,13.52
2023-02-15T11:59:12.903Z,14.27
2023-02-15T12:00:23.477Z,12.10
2023-02-15T12:02:37.950Z,13.13
2023-02-15T12:03:47.788Z,12.00
2023-02-15T12:04:54.132Z,13.77
2023-02-15T12:06:04.152Z,13.57
2023-02-15T12:07:32.253Z,13.57
2023-02-15T12:08:40.008Z,13.25
2023-02-15T12:09:53.841Z,12.52
2023-02-15T12:11:04.506Z,12.60
2023-02-15T12:13:26.048Z,13.10
2023-02-15T12:14:48.619Z,15.07
2023-02-15T12:15:56.564Z,13.45
2023-02-15T12:16:59.241Z,14.43
2023-02-15T12:18:01.718Z,13.52
2023-02-15T12:19:04.500Z,13.05
2023-02-15T12:20:30.969Z,15.38
2023-02-15T12:21:40.656Z,14.05
2023-02-15T12:23:03.828Z,12.68
2023-02-15T12:24:31.040Z,13.38
2023-02-15T12:25:36.461Z,12.60
2023-02-15T12:26:39.385Z,13.23
2023-02-15T12:27:44.193Z,14.60
2023-02-15T12:28:50.700Z,13.20
2023-02-15T12:29:57.739Z,14.38
2023-02-15T12:31:02.387Z,13.88
2023-02-15T12:32:05.502Z,13.18
2023-02-15T12:33:31.465Z,14.38
2023-02-15T12:34:40.572Z,14.93
2023-02-15T12:35:43.651Z,14.52
2023-02-15T12:36:51.830Z,15.18
2023-02-15T12:37:56.863Z,14.18
2023-02-15T12:39:14.464Z,15.27
2023-02-15T12:40:27.046Z,14.80
2023-02-15T12:41:29.634Z,14.63
2023-02-15T12:42:44.179Z,15.00
2023-02-15T12:43:46.596Z,14.30
2023-02-15T12:45:01.123Z,14.63
2023-02-15T12:46:24.368Z,13.88
2023-02-15T12:47:29.422Z,14.20
2023-02-15T12:48:32.096Z,14.50
2023-02-15T12:49:36.374Z,14.73
2023-02-15T12:50:42.441Z,15.35
2023-02-15T12:51:47.549Z,13.93
2023-02-15T12:52:52.576Z,14.63
2023-02-15T12:53:55.076Z,14.93
2023-02-15T12:55:20.528Z,14.13
2023-02-15T12:56:28.679Z,15.20
2023-02-15T12:57:33.047Z,13.60
2023-02-15T12:58:40.204Z,15.32
2023-02-15T12:59:56.277Z,14.52
2023-02-15T13:01:12.118Z,14.18
2023-02-15T13:02:25.015Z,13.32
2023-02-15T13:03:27.820Z,14.43
2023-02-15T13:04:30.875Z,13.50
2023-02-15T13:05:45.010Z,14.02
2023-02-15T13:06:50.493Z,14.60
2023-02-15T13:07:59.209Z,14.43
2023-02-15T13:09:19.345Z,15.15
2023-02-15T13:10:32.072Z,14.18
2023-02-15T13:11:38.422Z,14.20
2023-02-15T13:12:47.781Z,14.85
2023-02-15T13:13:57.371Z,14.82
2023-02-15T13:15:02.643Z,13.27
2023-02-15T13:16:14.345Z,14.93
2023-02-15T13:17:18.376Z,13.25
2023-02-15T13:18:31.828Z,13.38
2023-02-15T13:19:42.500Z,13.70
2023-02-15T13:21:50.516Z,13.20
2023-02-15T13:23:06.245Z,13.15
2023-02-15T13:24:13.450Z,14.88
2023-02-15T13:25:29.480Z,15.25
2023-02-15T13:26:33.013Z,14.02
2023-02-15T13:27:41.416Z,14.55
2023-02-15T13:28:46.819Z,14.32
2023-02-15T13:30:00.934Z,13.93
2023-02-15T13:31:04.054Z,14.13
2023-02-15T13:32:28.230Z,13.80
2023-02-15T13:33:36.510Z,15.30
2023-02-15T13:34:40.466Z,13.98
2023-02-15T13:36:12.688Z,12.93
2023-02-15T13:37:23.340Z,12.40
2023-02-15T13:39:56.178Z,14.18
2023-02-15T13:41:05.580Z,14.00
2023-02-15T13:42:40.181Z,15.10
2023-02-15T13:44:08.299Z,14.50
2023-02-15T13:45:38.491Z,14.90
2023-02-15T13:46:54.024Z,15.90
2023-02-15T13:48:09.365Z,15.35
2023-02-15T13:49:14.542Z,13.35
2023-02-15T13:50:38.471Z,16.08
2023-02-15T13:52:23.170Z,15.05
2023-02-15T13:53:48.666Z,14.98
2023-02-15T13:55:24.912Z,15.27
2023-02-15T13:56:36.401Z,15.68
2023-02-15T13:58:10.324Z,16.70
2023-02-15T13:59:30.077Z,15.10
2023-02-15T14:00:45.591Z,15.30
2023-02-15T14:02:00.092Z,15.55
2023-02-15T14:03:08.736Z,16.08
2023-02-15T14:04:23.527Z,15.68
2023-02-15T14:05:34.446Z,15.23
2023-02-15T14:07:53.497Z,17.48
2023-02-15T14:09:14.416Z,16.83
2023-02-15T14:11:58.032Z,14.68
2023-02-15T14:13:06.823Z,17.15
2023-02-15T14:14:41.102Z,17.00
2023-02-15T14:15:52.473Z,15.52
2023-02-15T14:17:35.509Z,18.23
2023-02-15T14:18:45.605Z,18.05
2023-02-15T14:20:21.546Z,17.00
2023-02-15T14:21:33.907Z,16.45
2023-02-15T14:22:51.112Z,15.65
2023-02-15T14:24:05.773Z,16.48
2023-02-15T14:25:19.411Z,16.35
2023-02-15T14:26:35.273Z,17.40
2023-02-15T14:27:56.768Z,16.85
2023-02-15T14:29:30.232Z,16.63
2023-02-15T14:30:39.382Z,17.08
2023-02-15T14:31:45.783Z,17.95
2023-02-15T14:32:54.354Z,19.35
2023-02-15T14:33:58.183Z,18.35
2023-02-15T14:35:02.601Z,18.65
2023-02-15T14:36:07.633Z,18.98
2023-02-15T14:37:13.317Z,17.85
2023-02-15T14:38:45.944Z,17.90
2023-02-15T14:40:23.611Z,18.20
2023-02-15T14:41:38.968Z,17.05
2023-02-15T14:42:47.313Z,18.20
2023-02-15T14:44:19.205Z,16.77
2023-02-15T14:45:33.734Z,17.10
2023-02-15T14:46:46.067Z,16.48
2023-02-15T14:47:58.471Z,16.05
2023-02-15T14:49:15.598Z,16.88
2023-02-15T14:50:38.262Z,15.25
2023-02-15T14:51:50.523Z,16.20
2023-02-15T14:53:32.048Z,17.23
2023-02-15T14:54:34.865Z,16.42
2023-02-15T14:55:38.011Z,17.85
2023-02-15T14:56:40.676Z,17.23
2023-02-15T14:57:57.226Z,16.33